Time;durP1;ratioP1;P1;durP2;ratioP2;P2;SDS_P1;SDS_P2;PMS_P1;PMS_P2;Temp;Humidity;BMP_temperature;BMP_pressure;BME280_temperature;BME280_humidity;BME280_pressure;Samples;Min_cycle;Max_cycle;Signal;HPM_P1;HPM_P2
2024/02/26 00:02:43;;;;;;;120.10;41.30;;;;;;;3.96;72.45;99290.59;130340;1259;107634;-77
2024/02/26 00:05:48;;;;;;;189.00;55.80;;;;;;;3.94;72.53;99287.37;130339;1263;107656;-76
2024/02/26 00:08:54;;;;;;;230.80;73.50;;;;;;;3.92;72.64;99288.58;130332;1266;108560;-78
2024/02/26 00:12:00;;;;;;;106.10;36.60;;;;;;;3.90;72.64;99285.24;130350;1263;108689;-79
2024/02/26 00:15:06;;;;;;;69.40;25.10;;;;;;;3.87;72.63;99282.33;130355;1259;106401;-78
2024/02/26 00:18:12;;;;;;;57.40;23.50;;;;;;;3.84;72.57;99283.67;130352;1274;106732;-77
2024/02/26 00:21:18;;;;;;;90.90;32.50;;;;;;;3.81;72.52;99278.45;130583;1264;106520;-78
2024/02/26 00:24:23;;;;;;;130.40;40.10;;;;;;;3.78;72.52;99275.23;130882;1265;108768;-78
2024/02/26 00:27:29;;;;;;;267.00;79.00;;;;;;;3.74;72.59;99276.95;130840;1265;107678;-78
2024/02/26 00:30:34;;;;;;;154.90;47.00;;;;;;;3.71;72.63;99274.63;130618;1259;107687;-80
2024/02/26 00:33:41;;;;;;;175.10;53.80;;;;;;;3.66;72.38;99271.70;130990;1263;105373;-78
2024/02/26 00:36:46;;;;;;;107.40;35.20;;;;;;;3.58;72.72;99270.83;130896;1264;105924;-77
2024/02/26 00:39:53;;;;;;;187.20;58.60;;;;;;;3.55;72.72;99270.67;130481;1259;107009;-77
2024/02/26 00:42:58;;;;;;;123.50;41.90;;;;;;;3.51;72.90;99271.50;130249;1264;108365;-75
2024/02/26 00:46:04;;;;;;;254.00;81.20;;;;;;;3.53;72.92;99270.34;130266;1272;108537;-75
2024/02/26 00:49:10;;;;;;;128.10;44.30;;;;;;;3.54;73.09;99262.13;130321;1265;107702;-76
2024/02/26 00:52:15;;;;;;;49.20;21.50;;;;;;;3.56;73.07;99264.08;130250;1264;107367;-76
2024/02/26 00:55:21;;;;;;;55.20;24.70;;;;;;;3.58;73.00;99261.99;130270;1264;106973;-75
2024/02/26 00:58:27;;;;;;;87.60;36.20;;;;;;;3.58;72.92;99264.67;130271;1265;108691;-76
2024/02/26 01:01:32;;;;;;;93.40;39.00;;;;;;;3.57;72.89;99267.69;130265;1267;106884;-75
2024/02/26 01:04:38;;;;;;;92.50;39.00;;;;;;;3.55;72.96;99270.54;130279;1264;108669;-75
2024/02/26 01:07:43;;;;;;;70.70;31.10;;;;;;;3.50;72.90;99270.02;130339;1265;107611;-76
2024/02/26 01:10:49;;;;;;;49.60;23.50;;;;;;;3.46;72.99;99269.84;130322;1266;107874;-78
2024/02/26 01:13:56;;;;;;;50.30;25.10;;;;;;;3.44;73.15;99271.30;130412;1261;107585;-76
2024/02/26 01:17:02;;;;;;;53.50;26.40;;;;;;;3.41;72.98;99269.75;130273;1265;108620;-75
2024/02/26 01:20:10;;;;;;;31.90;17.10;;;;;;;3.36;72.96;99269.70;130301;1265;107600;-78
2024/02/26 01:23:16;;;;;;;234.40;105.40;;;;;;;3.32;73.30;99275.60;130302;1267;108657;-78
2024/02/26 01:26:22;;;;;;;110.10;50.60;;;;;;;3.29;73.46;99271.85;130359;1273;107038;-76
2024/02/26 01:29:27;;;;;;;53.90;26.90;;;;;;;3.26;73.30;99269.48;130263;1259;107278;-75
2024/02/26 01:32:33;;;;;;;35.40;19.20;;;;;;;3.23;73.25;99268.84;130287;1263;106469;-77
2024/02/26 01:35:39;;;;;;;33.50;18.60;;;;;;;3.20;73.20;99268.92;130231;1264;107756;-76
2024/02/26 01:38:45;;;;;;;33.90;18.50;;;;;;;3.16;73.42;99265.55;130360;1259;107051;-76
2024/02/26 01:41:50;;;;;;;37.70;19.70;;;;;;;3.13;73.24;99264.95;130356;1264;107722;-76
2024/02/26 01:44:56;;;;;;;39.80;20.10;;;;;;;3.11;73.45;99262.47;130286;1263;109311;-76
2024/02/26 01:48:02;;;;;;;31.60;16.90;;;;;;;3.11;73.46;99263.02;130311;1265;107134;-76
2024/02/26 01:51:08;;;;;;;27.30;14.80;;;;;;;3.12;73.41;99263.98;130444;1263;107176;-77
2024/02/26 01:54:14;;;;;;;41.90;21.80;;;;;;;3.15;73.32;99266.37;130237;1265;105500;-75
2024/02/26 01:57:20;;;;;;;39.50;21.40;;;;;;;3.19;73.37;99264.13;130224;1263;106238;-76
2024/02/26 02:00:26;;;;;;;41.90;23.50;;;;;;;3.22;73.32;99265.77;130336;1264;106479;-75
2024/02/26 02:03:33;;;;;;;38.00;18.40;;;;;;;3.22;73.31;99266.15;130387;1260;109492;-75
2024/02/26 02:06:41;;;;;;;31.30;16.90;;;;;;;3.19;73.14;99264.34;130415;1264;107585;-76
2024/02/26 02:09:47;;;;;;;30.00;15.70;;;;;;;3.14;73.41;99264.13;130286;1264;107970;-76
2024/02/26 02:12:53;;;;;;;26.80;15.50;;;;;;;3.09;73.35;99263.84;130273;1263;108602;-76
2024/02/26 02:15:59;;;;;;;30.90;16.80;;;;;;;3.05;73.39;99264.20;130572;1273;106531;-76
2024/02/26 02:19:04;;;;;;;28.80;16.80;;;;;;;3.01;73.33;99261.88;130198;1260;108384;-75
2024/02/26 02:22:10;;;;;;;27.40;15.60;;;;;;;2.98;73.31;99263.91;130269;1272;106795;-76
2024/02/26 02:25:16;;;;;;;29.30;17.30;;;;;;;2.95;73.43;99267.17;130376;1273;108833;-77
2024/02/26 02:28:22;;;;;;;30.70;16.30;;;;;;;2.92;73.31;99271.22;130357;1263;106372;-76
2024/02/26 02:31:28;;;;;;;28.60;15.60;;;;;;;2.88;73.52;99274.42;130194;1272;109404;-78
2024/02/26 02:34:35;;;;;;;28.90;15.40;;;;;;;2.84;73.49;99272.16;130238;1265;109433;-75
2024/02/26 02:37:40;;;;;;;31.00;16.10;;;;;;;2.81;73.60;99276.60;130098;1266;106666;-77
2024/02/26 02:40:46;;;;;;;26.20;15.50;;;;;;;2.77;73.68;99276.25;130257;1264;106864;-76
2024/02/26 02:43:52;;;;;;;28.30;15.40;;;;;;;2.71;73.57;99274.23;130271;1264;107658;-76
2024/02/26 02:46:57;;;;;;;29.40;15.00;;;;;;;2.67;73.81;99272.31;130222;1261;107782;-78
2024/02/26 02:50:03;;;;;;;25.90;14.30;;;;;;;2.67;73.93;99273.70;130231;1273;108515;-76
2024/02/26 02:53:08;;;;;;;28.60;14.90;;;;;;;2.70;73.95;99267.45;130199;1271;108626;-76
2024/02/26 02:56:14;;;;;;;40.40;22.90;;;;;;;2.74;73.77;99277.66;130307;1263;107159;-76
2024/02/26 02:59:20;;;;;;;30.10;17.00;;;;;;;2.77;73.76;99277.99;130167;1263;107687;-77
2024/02/26 03:02:25;;;;;;;29.50;16.90;;;;;;;2.78;73.91;99271.73;130190;1261;107380;-76
2024/02/26 03:05:31;;;;;;;29.20;15.40;;;;;;;2.80;73.89;99272.11;130251;1270;108778;-78
2024/02/26 03:08:39;;;;;;;29.60;15.90;;;;;;;2.80;74.03;99272.61;130247;1263;107714;-76
2024/02/26 03:11:45;;;;;;;30.80;15.70;;;;;;;2.80;73.90;99273.05;130203;1264;106609;-75
2024/02/26 03:14:51;;;;;;;27.80;16.10;;;;;;;2.81;73.96;99270.82;130221;1263;108698;-78
2024/02/26 03:17:56;;;;;;;28.70;15.00;;;;;;;2.81;74.02;99269.57;130242;1266;107444;-76
2024/02/26 03:21:02;;;;;;;26.30;14.90;;;;;;;2.78;73.75;99268.63;130202;1264;108669;-76
2024/02/26 03:24:10;;;;;;;26.30;14.60;;;;;;;2.74;73.87;99266.42;130252;1263;106610;-77
2024/02/26 03:27:16;;;;;;;23.30;14.10;;;;;;;2.72;74.20;99268.14;130381;1261;106651;-76
2024/02/26 03:30:21;;;;;;;28.30;15.30;;;;;;;2.70;74.03;99269.40;130349;1266;107120;-78
2024/02/26 03:33:27;;;;;;;25.80;14.60;;;;;;;2.65;74.08;99268.20;130332;1273;106459;-76
2024/02/26 03:36:32;;;;;;;25.50;14.30;;;;;;;2.62;74.09;99265.14;130335;1263;107116;-76
2024/02/26 03:39:38;;;;;;;26.40;14.90;;;;;;;2.55;74.04;99265.35;130267;1269;106359;-75
2024/02/26 03:42:44;;;;;;;27.20;15.00;;;;;;;2.51;74.08;99264.48;130325;1264;108328;-75
2024/02/26 03:45:50;;;;;;;25.70;14.50;;;;;;;2.48;74.10;99266.88;130234;1264;106953;-78
2024/02/26 03:48:55;;;;;;;25.00;13.50;;;;;;;2.46;74.26;99269.09;130294;1265;106947;-75
2024/02/26 03:52:01;;;;;;;24.50;13.20;;;;;;;2.47;74.13;99268.64;130252;1267;106602;-77
2024/02/26 03:55:08;;;;;;;22.70;11.90;;;;;;;2.50;74.04;99266.17;130394;1266;108665;-78
2024/02/26 03:58:15;;;;;;;25.80;12.90;;;;;;;2.56;74.14;99264.77;130312;1265;108615;-76
2024/02/26 04:01:20;;;;;;;25.70;14.00;;;;;;;2.60;74.12;99267.08;130337;1266;108678;-75
2024/02/26 04:04:26;;;;;;;23.90;13.90;;;;;;;2.62;74.12;99275.86;130260;1269;106389;-78
2024/02/26 04:07:31;;;;;;;25.80;13.70;;;;;;;2.62;73.92;99272.38;130314;1264;106269;-77
2024/02/26 04:10:38;;;;;;;25.30;14.00;;;;;;;2.61;73.94;99277.52;130329;1264;108781;-78
2024/02/26 04:13:45;;;;;;;24.90;14.30;;;;;;;2.56;74.04;99279.52;130235;1264;107653;-76
2024/02/26 04:16:54;;;;;;;23.70;14.40;;;;;;;2.50;74.06;99287.40;130357;1264;107716;-75
2024/02/26 04:20:00;;;;;;;30.10;16.70;;;;;;;2.43;74.04;99277.39;130367;1264;106537;-76
2024/02/26 04:23:06;;;;;;;27.60;15.40;;;;;;;2.41;74.14;99283.73;130296;1271;106324;-76
2024/02/26 04:26:11;;;;;;;78.50;39.10;;;;;;;2.39;74.41;99280.20;130259;1273;107805;-75
2024/02/26 04:29:17;;;;;;;58.50;30.60;;;;;;;2.34;74.26;99278.64;130357;1264;107743;-78
2024/02/26 04:32:23;;;;;;;58.40;30.50;;;;;;;2.32;74.04;99280.09;130316;1261;107516;-78
2024/02/26 04:35:28;;;;;;;52.80;27.10;;;;;;;2.27;74.17;99279.10;130312;1273;108775;-77
2024/02/26 04:38:34;;;;;;;78.80;31.70;;;;;;;2.23;74.25;99281.83;130306;1264;107673;-76
2024/02/26 04:41:40;;;;;;;71.80;28.10;;;;;;;2.20;74.19;99283.31;130319;1263;106516;-76
2024/02/26 04:44:45;;;;;;;47.90;23.10;;;;;;;2.17;74.20;99282.33;130277;1265;106470;-78
2024/02/26 04:47:51;;;;;;;65.80;37.90;;;;;;;2.12;74.32;99279.54;130254;1259;107833;-76
2024/02/26 04:50:56;;;;;;;55.70;30.50;;;;;;;2.06;74.26;99283.77;130304;1266;107043;-78
2024/02/26 04:54:02;;;;;;;34.50;17.30;;;;;;;2.01;74.43;99287.45;130461;1263;107883;-75
2024/02/26 04:57:08;;;;;;;30.20;15.10;;;;;;;1.99;74.50;99280.98;130347;1265;106237;-76
2024/02/26 05:00:16;;;;;;;52.20;21.20;;;;;;;2.00;74.53;99283.66;130246;1262;106406;-78
2024/02/26 05:03:21;;;;;;;96.50;30.10;;;;;;;2.04;74.58;99286.16;130362;1264;108375;-78
2024/02/26 05:06:27;;;;;;;48.60;20.60;;;;;;;2.10;74.46;99284.11;130380;1260;108585;-80
2024/02/26 05:09:32;;;;;;;35.70;16.60;;;;;;;2.18;74.47;99281.89;130391;1264;106828;-75
2024/02/26 05:12:42;;;;;;;32.20;15.90;;;;;;;2.21;74.44;99286.90;130512;1258;108688;-75
2024/02/26 05:15:49;;;;;;;33.50;16.80;;;;;;;2.22;74.29;99282.77;130270;1263;106117;-76
2024/02/26 05:18:55;;;;;;;33.40;17.10;;;;;;;2.20;74.35;99290.51;130364;1265;107578;-76
2024/02/26 05:22:00;;;;;;;33.00;17.10;;;;;;;2.18;74.35;99295.11;130263;1264;108738;-76
2024/02/26 05:25:07;;;;;;;31.90;16.40;;;;;;;2.14;74.50;99300.97;130351;1261;107441;-76
2024/02/26 05:28:12;;;;;;;97.50;33.70;;;;;;;2.09;74.47;99302.47;130263;1264;108380;-78
2024/02/26 05:31:18;;;;;;;86.80;32.10;;;;;;;2.05;74.60;99305.21;130336;1264;106423;-76
2024/02/26 05:34:24;;;;;;;54.40;23.10;;;;;;;2.02;74.80;99304.45;130260;1261;106595;-78
2024/02/26 05:37:29;;;;;;;41.90;20.00;;;;;;;1.98;74.60;99309.64;130156;1264;108648;-77
2024/02/26 05:40:35;;;;;;;40.50;18.40;;;;;;;1.94;74.72;99311.86;130239;1261;106721;-76
2024/02/26 05:43:41;;;;;;;38.60;19.70;;;;;;;1.89;74.71;99310.49;130403;1261;108645;-77
2024/02/26 05:46:46;;;;;;;33.50;16.50;;;;;;;1.86;74.74;99314.75;130356;1263;107436;-77
2024/02/26 05:49:52;;;;;;;35.10;16.90;;;;;;;1.84;74.83;99318.58;130305;1260;108137;-76
2024/02/26 05:52:58;;;;;;;32.50;16.10;;;;;;;1.82;74.92;99326.31;130304;1264;108692;-81
2024/02/26 05:56:05;;;;;;;37.90;16.20;;;;;;;1.85;75.11;99326.98;130763;1261;107569;-77
2024/02/26 05:59:10;;;;;;;31.00;16.30;;;;;;;1.90;75.00;99327.23;130283;1265;107788;-78
2024/02/26 06:02:16;;;;;;;26.80;15.80;;;;;;;1.97;75.09;99330.89;130376;1263;106803;-77
2024/02/26 06:05:21;;;;;;;28.70;15.90;;;;;;;2.05;75.09;99333.77;130351;1260;107096;-80
2024/02/26 06:08:27;;;;;;;29.20;16.40;;;;;;;2.14;75.21;99342.42;130534;1264;107302;-81
2024/02/26 06:11:33;;;;;;;31.80;17.10;;;;;;;2.20;75.20;99347.34;130898;1263;108730;-77
2024/02/26 06:14:38;;;;;;;30.30;17.20;;;;;;;2.24;75.19;99349.35;130584;1264;106749;-82
2024/02/26 06:17:44;;;;;;;29.00;16.70;;;;;;;2.30;75.20;99346.16;130619;1264;107512;-82
2024/02/26 06:20:49;;;;;;;33.30;17.90;;;;;;;2.36;75.43;99347.83;130531;1264;108495;-82
2024/02/26 06:23:55;;;;;;;32.30;17.90;;;;;;;2.39;75.33;99345.48;131944;1259;106632;-80
2024/02/26 06:27:00;;;;;;;30.90;17.90;;;;;;;2.43;75.43;99349.41;130560;1264;108210;-80
2024/02/26 06:30:10;;;;;;;32.50;19.10;;;;;;;2.46;75.42;99344.38;130426;1263;106136;-80
2024/02/26 06:33:16;;;;;;;37.10;21.40;;;;;;;2.51;75.48;99348.05;130698;1261;108608;-80
2024/02/26 06:36:22;;;;;;;38.00;20.90;;;;;;;2.56;75.75;99352.22;130365;1262;108458;-80
2024/02/26 06:39:28;;;;;;;42.30;24.40;;;;;;;2.61;75.80;99353.00;130605;1270;108382;-80
2024/02/26 06:42:34;;;;;;;52.50;28.40;;;;;;;2.65;75.68;99353.77;130298;1264;107646;-80
2024/02/26 06:45:39;;;;;;;41.80;20.70;;;;;;;2.68;75.87;99356.66;130465;1261;107825;-80
2024/02/26 06:48:45;;;;;;;41.40;20.50;;;;;;;2.73;76.15;99350.15;130466;1263;108420;-80
2024/02/26 06:51:50;;;;;;;37.10;18.50;;;;;;;2.81;76.18;99351.27;130486;1264;108522;-80
2024/02/26 06:54:56;;;;;;;35.40;17.90;;;;;;;2.92;76.48;99351.21;130463;1262;107668;-77
2024/02/26 06:58:01;;;;;;;31.90;18.70;;;;;;;3.06;76.62;99353.40;130359;1263;107656;-79
2024/02/26 07:01:08;;;;;;;33.10;20.30;;;;;;;3.20;77.28;99355.52;130327;1263;108426;-78
2024/02/26 07:04:13;;;;;;;32.20;20.10;;;;;;;3.36;77.31;99356.68;130317;1273;107797;-78
2024/02/26 07:07:19;;;;;;;40.60;22.40;;;;;;;3.48;77.73;99351.29;130307;1264;108429;-78
2024/02/26 07:10:24;;;;;;;45.40;25.50;;;;;;;3.60;78.13;99353.14;130304;1264;108350;-80
2024/02/26 07:13:30;;;;;;;34.30;19.40;;;;;;;3.69;78.05;99355.63;130337;1264;106507;-78
2024/02/26 07:16:35;;;;;;;31.00;17.90;;;;;;;3.80;78.51;99353.99;130307;1263;106177;-78
2024/02/26 07:19:41;;;;;;;24.90;14.90;;;;;;;3.92;78.70;99354.54;130333;1263;108725;-79
2024/02/26 07:22:47;;;;;;;27.00;14.00;;;;;;;4.05;78.92;99354.00;130294;1264;107961;-79
2024/02/26 07:25:52;;;;;;;25.70;14.80;;;;;;;4.19;79.23;99354.72;130312;1264;108741;-79
2024/02/26 07:28:58;;;;;;;26.90;15.90;;;;;;;4.35;79.42;99351.90;130333;1264;108473;-79
2024/02/26 07:32:05;;;;;;;34.10;20.70;;;;;;;4.53;79.73;99351.30;130310;1261;107022;-79
2024/02/26 07:35:11;;;;;;;29.60;17.70;;;;;;;4.71;79.93;99354.30;130304;1259;107437;-79
2024/02/26 07:38:16;;;;;;;32.70;21.00;;;;;;;4.88;80.10;99355.95;130320;1260;107052;-78
2024/02/26 07:41:22;;;;;;;29.40;17.40;;;;;;;5.01;80.08;99353.22;130329;1264;106876;-79
2024/02/26 07:44:27;;;;;;;23.40;14.90;;;;;;;5.13;80.29;99352.68;130306;1264;108711;-79
2024/02/26 07:47:34;;;;;;;22.90;14.60;;;;;;;5.25;80.67;99355.63;130361;1264;106382;-79
2024/02/26 07:50:40;;;;;;;24.00;14.50;;;;;;;5.40;80.81;99364.13;130326;1264;107713;-79
2024/02/26 07:53:46;;;;;;;23.20;13.40;;;;;;;5.55;81.39;99366.24;130341;1273;107465;-79
2024/02/26 07:56:51;;;;;;;21.80;12.40;;;;;;;5.71;81.59;99365.12;130346;1260;106783;-78
2024/02/26 07:59:57;;;;;;;23.60;13.30;;;;;;;5.89;81.49;99366.73;130311;1261;108623;-79
2024/02/26 08:03:03;;;;;;;22.10;13.40;;;;;;;6.08;81.45;99366.23;130379;1264;108791;-79
2024/02/26 08:06:10;;;;;;;21.70;13.20;;;;;;;6.27;81.34;99364.64;130662;1261;108366;-78
2024/02/26 08:09:16;;;;;;;18.90;12.50;;;;;;;6.45;81.66;99365.75;130412;1259;106470;-79
2024/02/26 08:12:21;;;;;;;21.80;13.30;;;;;;;6.60;81.68;99369.33;130457;1260;107728;-78
2024/02/26 08:15:27;;;;;;;19.80;13.10;;;;;;;6.75;81.80;99368.15;130308;1259;106798;-79
2024/02/26 08:18:32;;;;;;;17.40;11.40;;;;;;;6.88;81.68;99371.99;130273;1269;105596;-81
2024/02/26 08:21:38;;;;;;;17.30;10.40;;;;;;;6.98;81.46;99365.51;130303;1260;107776;-79
2024/02/26 08:24:44;;;;;;;18.80;12.20;;;;;;;7.10;81.56;99370.83;130303;1263;108755;-80
2024/02/26 08:27:49;;;;;;;18.90;12.00;;;;;;;7.25;81.95;99367.71;130284;1261;108663;-79
2024/02/26 08:30:55;;;;;;;21.30;13.00;;;;;;;7.40;81.89;99367.13;130300;1260;108543;-80
2024/02/26 08:34:01;;;;;;;18.40;12.10;;;;;;;7.55;82.00;99365.62;130291;1264;108427;-81
2024/02/26 08:37:08;;;;;;;18.30;12.10;;;;;;;7.66;81.99;99363.48;130353;1264;107540;-80
2024/02/26 08:40:14;;;;;;;20.50;11.80;;;;;;;7.75;81.64;99365.23;130338;1259;108424;-79
2024/02/26 08:43:22;;;;;;;18.00;11.50;;;;;;;7.83;81.76;99364.16;130284;1274;108188;-78
2024/02/26 08:46:28;;;;;;;17.20;11.30;;;;;;;7.96;81.94;99364.20;130304;1264;106738;-79
2024/02/26 08:49:34;;;;;;;16.80;11.00;;;;;;;8.09;81.75;99357.45;130319;1263;107635;-80
2024/02/26 08:52:40;;;;;;;16.50;11.40;;;;;;;8.23;81.69;99361.66;130360;1261;107795;-80
2024/02/26 08:55:46;;;;;;;16.80;10.50;;;;;;;8.35;81.67;99362.58;130428;1261;107190;-78
2024/02/26 08:58:53;;;;;;;13.90;10.60;;;;;;;8.44;81.56;99365.59;130338;1263;108665;-81
2024/02/26 09:01:59;;;;;;;15.30;10.10;;;;;;;8.52;81.68;99366.27;130585;1263;108732;-83
2024/02/26 09:05:05;;;;;;;15.20;9.90;;;;;;;8.60;81.64;99368.64;130704;1259;108727;-80
2024/02/26 09:08:11;;;;;;;11.60;7.90;;;;;;;8.68;81.51;99366.92;131833;1259;109473;-79
2024/02/26 09:11:16;;;;;;;11.80;8.70;;;;;;;8.78;81.49;99362.45;130602;1259;105992;-78
2024/02/26 09:14:22;;;;;;;15.90;9.70;;;;;;;8.88;81.50;99361.05;130378;1274;107970;-77
2024/02/26 09:17:28;;;;;;;13.00;9.40;;;;;;;8.99;81.43;99365.23;130746;1259;108771;-78
2024/02/26 09:20:33;;;;;;;13.40;9.10;;;;;;;9.10;81.49;99369.75;130750;1263;107660;-78
2024/02/26 09:23:39;;;;;;;26.70;19.90;;;;;;;9.18;81.32;99367.50;131011;1263;108707;-80
2024/02/26 09:26:44;;;;;;;22.00;15.50;;;;;;;9.25;81.01;99365.63;130973;1259;107793;-80
2024/02/26 09:29:50;;;;;;;29.10;24.30;;;;;;;9.33;81.01;99365.27;131851;1259;108456;-80
2024/02/26 09:32:55;;;;;;;18.80;13.30;;;;;;;9.39;81.03;99362.83;130800;1262;108702;-80
2024/02/26 09:36:01;;;;;;;13.80;9.40;;;;;;;9.47;81.38;99365.36;130358;1265;108400;-80
2024/02/26 09:39:11;;;;;;;16.10;10.90;;;;;;;9.57;81.16;99364.31;130481;1264;107407;-82
2024/02/26 09:42:19;;;;;;;14.60;11.00;;;;;;;9.70;81.22;99356.84;130494;1259;107965;-79
2024/02/26 09:45:28;;;;;;;16.80;10.60;;;;;;;9.82;81.23;99359.73;130584;1263;106504;-80
2024/02/26 09:48:35;;;;;;;13.60;10.20;;;;;;;9.92;80.59;99361.17;130435;1259;106821;-80
2024/02/26 09:51:41;;;;;;;13.80;10.50;;;;;;;10.00;80.48;99362.56;130593;1259;107567;-79
2024/02/26 09:54:49;;;;;;;14.50;10.20;;;;;;;10.06;79.89;99360.23;130358;1264;108107;-80
2024/02/26 09:57:56;;;;;;;14.50;10.30;;;;;;;10.12;80.76;99360.33;130603;1264;107597;-81
2024/02/26 10:01:08;;;;;;;14.90;9.70;;;;;;;10.16;80.35;99362.50;130552;1260;107191;-84
2024/02/26 10:04:15;;;;;;;13.50;10.40;;;;;;;10.20;79.66;99361.33;130492;1264;106315;-81
2024/02/26 10:07:21;;;;;;;13.80;9.10;;;;;;;10.28;80.04;99363.00;130341;1262;107203;-80
2024/02/26 10:10:29;;;;;;;11.90;8.40;;;;;;;10.36;80.33;99362.62;130559;1259;107751;-79
2024/02/26 10:13:35;;;;;;;13.60;9.10;;;;;;;10.48;80.20;99362.50;130352;1259;107774;-79
2024/02/26 10:16:41;;;;;;;12.30;8.50;;;;;;;10.63;80.01;99366.92;130728;1264;107708;-78
2024/02/26 10:19:46;;;;;;;13.10;9.10;;;;;;;10.76;79.97;99364.01;130497;1261;107219;-78
2024/02/26 10:22:52;;;;;;;12.70;9.10;;;;;;;10.86;79.60;99364.57;130304;1259;107810;-77
2024/02/26 10:25:58;;;;;;;11.30;8.50;;;;;;;10.95;79.34;99361.02;130286;1264;106598;-78
2024/02/26 10:29:04;;;;;;;11.40;8.20;;;;;;;11.03;79.16;99362.33;130306;1259;108656;-78
2024/02/26 10:32:11;;;;;;;13.40;8.30;;;;;;;11.11;79.24;99362.94;130350;1259;108658;-77
2024/02/26 10:35:17;;;;;;;11.50;7.90;;;;;;;11.16;78.67;99358.95;130374;1263;108715;-77
2024/02/26 10:38:23;;;;;;;12.90;8.30;;;;;;;11.24;78.84;99355.77;130299;1264;108583;-77
2024/02/26 10:41:29;;;;;;;10.20;8.20;;;;;;;11.32;78.55;99357.91;130531;1263;106715;-78
2024/02/26 10:44:35;;;;;;;10.70;7.90;;;;;;;11.38;78.59;99359.08;130453;1263;106518;-78
2024/02/26 10:47:42;;;;;;;12.30;8.40;;;;;;;11.44;78.60;99356.13;130368;1258;107777;-78
2024/02/26 10:50:49;;;;;;;9.10;7.10;;;;;;;11.45;78.24;99354.95;130337;1264;107609;-80
2024/02/26 10:54:01;;;;;;;8.70;6.00;;;;;;;11.49;77.81;99350.40;130338;1260;106659;-78
2024/02/26 10:57:08;;;;;;;8.30;6.10;;;;;;;11.52;77.40;99351.06;130418;1263;106602;-78
2024/02/26 11:00:17;;;;;;;6.80;5.20;;;;;;;11.57;77.47;99350.86;130532;1259;108543;-79
2024/02/26 11:03:23;;;;;;;8.00;5.70;;;;;;;11.61;77.27;99354.14;130394;1263;105807;-78
2024/02/26 11:06:29;;;;;;;7.60;5.80;;;;;;;11.65;77.24;99350.55;130292;1263;106691;-78
2024/02/26 11:09:36;;;;;;;7.50;4.70;;;;;;;11.69;77.43;99346.51;130315;1264;106668;-77
2024/02/26 11:12:42;;;;;;;56.20;29.20;;;;;;;11.74;77.12;99345.08;130341;1264;107617;-79
2024/02/26 11:15:49;;;;;;;12.90;8.20;;;;;;;11.82;77.42;99345.33;130257;1261;106493;-78
2024/02/26 11:18:56;;;;;;;16.80;12.60;;;;;;;11.91;77.27;99343.41;130457;1263;107999;-78
2024/02/26 11:22:02;;;;;;;11.20;8.40;;;;;;;12.02;77.20;99340.33;130461;1259;107692;-82
2024/02/26 11:25:11;;;;;;;10.40;7.20;;;;;;;12.08;76.66;99339.46;130668;1259;108455;-82
2024/02/26 11:28:19;;;;;;;7.40;5.70;;;;;;;12.11;76.96;99341.33;130722;1259;107577;-80
2024/02/26 11:31:27;;;;;;;8.30;6.10;;;;;;;12.15;76.77;99344.59;130611;1258;106878;-80
2024/02/26 11:34:33;;;;;;;8.70;6.70;;;;;;;12.17;76.51;99343.86;130706;1264;108507;-81
2024/02/26 11:37:38;;;;;;;9.70;7.50;;;;;;;12.17;76.74;99338.64;130692;1263;106526;-80
2024/02/26 11:40:44;;;;;;;11.40;7.00;;;;;;;12.20;76.85;99334.61;130787;1258;107726;-81
2024/02/26 11:43:54;;;;;;;9.50;7.80;;;;;;;12.22;76.61;99337.56;130710;1263;106719;-81
2024/02/26 11:47:01;;;;;;;9.60;8.00;;;;;;;12.23;76.65;99333.48;130625;1259;107726;-81
2024/02/26 11:50:35;;;;;;;9.00;7.80;;;;;;;12.29;76.64;99328.87;130773;1259;107546;-81
2024/02/26 11:53:49;;;;;;;8.80;7.20;;;;;;;12.34;76.90;99329.64;131291;1263;107773;-81
2024/02/26 11:56:54;;;;;;;7.80;6.60;;;;;;;12.39;76.82;99331.98;131613;1259;106398;-82
2024/02/26 12:00:16;;;;;;;9.30;7.30;;;;;;;12.41;76.35;99331.94;131884;1259;109049;-84
2024/02/26 12:03:23;;;;;;;8.70;7.20;;;;;;;12.43;76.54;99333.58;131300;1259;106474;-81
2024/02/26 12:06:29;;;;;;;7.90;6.40;;;;;;;12.48;76.30;99326.78;130915;1259;108494;-80
2024/02/26 12:09:37;;;;;;;8.80;6.80;;;;;;;12.52;76.08;99323.59;130818;1259;106987;-81
2024/02/26 12:12:44;;;;;;;10.20;7.70;;;;;;;12.57;76.09;99324.38;130762;1262;108138;-82
2024/02/26 12:15:59;;;;;;;8.10;7.00;;;;;;;12.64;75.86;99323.05;130691;1259;106880;-82
2024/02/26 12:19:07;;;;;;;9.10;7.60;;;;;;;12.68;75.76;99327.51;130841;1259;106972;-83
2024/02/26 12:22:16;;;;;;;11.00;9.00;;;;;;;12.74;75.88;99326.23;130943;1259;108436;-81
2024/02/26 12:25:23;;;;;;;9.90;7.90;;;;;;;12.77;75.87;99328.52;130459;1258;105718;-80
2024/02/26 12:28:31;;;;;;;10.80;9.10;;;;;;;12.81;75.86;99331.96;130738;1263;107853;-80
2024/02/26 12:31:38;;;;;;;12.50;10.10;;;;;;;12.85;76.06;99331.14;130643;1263;108645;-80
2024/02/26 12:34:45;;;;;;;10.90;9.70;;;;;;;12.89;76.10;99327.73;130700;1263;108576;-84
2024/02/26 12:37:51;;;;;;;11.40;9.80;;;;;;;12.92;76.03;99329.52;130645;1263;106692;-84
2024/02/26 12:40:56;;;;;;;11.40;9.90;;;;;;;12.90;75.84;99333.13;130612;1263;107110;-85
2024/02/26 12:44:02;;;;;;;13.40;10.10;;;;;;;12.87;75.67;99336.19;130598;1263;105880;-85
2024/02/26 12:47:08;;;;;;;12.20;10.00;;;;;;;12.88;75.72;99334.34;130862;1258;108786;-84
2024/02/26 12:50:14;;;;;;;13.60;10.00;;;;;;;12.90;75.56;99341.95;130661;1260;108462;-85
2024/02/26 12:53:20;;;;;;;11.40;9.30;;;;;;;12.87;75.47;99345.82;130985;1259;108659;-82
2024/02/26 12:56:26;;;;;;;11.60;9.80;;;;;;;12.86;75.48;99343.77;130616;1263;106639;-81
2024/02/26 12:59:33;;;;;;;9.90;8.80;;;;;;;12.83;75.12;99350.13;130589;1263;108598;-81
2024/02/26 13:02:40;;;;;;;9.90;8.90;;;;;;;12.80;74.99;99347.95;130575;1259;108963;-84
2024/02/26 13:05:46;;;;;;;11.20;8.60;;;;;;;12.81;74.89;99348.07;130653;1261;107812;-81
2024/02/26 13:08:57;;;;;;;11.50;10.20;;;;;;;12.81;74.85;99350.20;130658;1259;108692;-78
2024/02/26 13:12:08;;;;;;;10.40;9.00;;;;;;;12.80;74.52;99348.88;130409;1273;106564;-79
2024/02/26 13:15:17;;;;;;;10.20;8.70;;;;;;;12.80;74.41;99350.12;130315;1264;106676;-79
2024/02/26 13:18:22;;;;;;;11.80;9.00;;;;;;;12.81;74.47;99349.77;130405;1263;107806;-77
2024/02/26 13:21:28;;;;;;;10.90;9.30;;;;;;;12.82;74.52;99341.42;130568;1259;108439;-78
2024/02/26 13:24:34;;;;;;;11.00;9.70;;;;;;;12.81;74.41;99338.52;130600;1261;108697;-80
2024/02/26 13:27:39;;;;;;;10.30;8.80;;;;;;;12.80;74.62;99341.41;130130;1259;366126;-79
2024/02/26 13:30:53;;;;;;;9.70;8.40;;;;;;;12.77;74.39;99330.46;130368;1263;107765;-80
2024/02/26 13:33:58;;;;;;;10.70;9.00;;;;;;;12.75;74.54;99336.81;130408;1264;106820;-78
2024/02/26 13:37:05;;;;;;;9.50;8.30;;;;;;;12.74;74.23;99336.91;130474;1264;107679;-79
2024/02/26 13:40:12;;;;;;;14.10;12.00;;;;;;;12.74;74.01;99336.71;130419;1259;108279;-79
2024/02/26 13:43:19;;;;;;;12.10;9.70;;;;;;;12.72;74.22;99335.79;130378;1263;106571;-78
2024/02/26 13:46:24;;;;;;;9.70;8.20;;;;;;;12.72;74.31;99339.36;130481;1264;107734;-78
2024/02/26 13:49:30;;;;;;;9.40;7.70;;;;;;;12.71;74.21;99338.16;130356;1259;107620;-79
2024/02/26 13:52:35;;;;;;;8.90;7.60;;;;;;;12.71;74.17;99339.73;130380;1263;107757;-78
2024/02/26 13:55:43;;;;;;;9.00;7.70;;;;;;;12.72;74.20;99339.32;130347;1259;107858;-78
2024/02/26 13:58:49;;;;;;;10.40;8.10;;;;;;;12.74;74.28;99340.83;130436;1263;107599;-80
2024/02/26 14:01:55;;;;;;;10.20;7.60;;;;;;;12.75;74.07;99343.89;130338;1261;108393;-78
2024/02/26 14:05:03;;;;;;;7.10;6.00;;;;;;;12.78;74.04;99343.19;130473;1259;108765;-80
2024/02/26 14:08:09;;;;;;;8.70;7.20;;;;;;;12.82;73.89;99340.05;130444;1261;107051;-78